sensor_id;sensor_type;location;lat;lon;timestamp;P1;durP1;ratioP1;P2;durP2;ratioP2
82744;SDS011;72484;50.004;14.356;2024-02-21T00:00:48;13.80;;;4.00;;
82744;SDS011;72484;50.004;14.356;2024-02-21T00:04:26;14.60;;;3.80;;
82744;SDS011;72484;50.004;14.356;2024-02-21T00:08:04;14.80;;;3.90;;
82744;SDS011;72484;50.004;14.356;2024-02-21T00:11:41;13.10;;;4.40;;
82744;SDS011;72484;50.004;14.356;2024-02-21T00:15:19;12.20;;;3.70;;
82744;SDS011;72484;50.004;14.356;2024-02-21T00:18:57;14.60;;;4.40;;
82744;SDS011;72484;50.004;14.356;2024-02-21T00:22:34;16.20;;;4.40;;
82744;SDS011;72484;50.004;14.356;2024-02-21T00:25:54;14.80;;;4.40;;
82744;SDS011;72484;50.004;14.356;2024-02-21T00:30:11;14.00;;;4.10;;
82744;SDS011;72484;50.004;14.356;2024-02-21T00:33:30;13.40;;;4.70;;
82744;SDS011;72484;50.004;14.356;2024-02-21T00:37:46;19.10;;;7.90;;
82744;SDS011;72484;50.004;14.356;2024-02-21T00:41:06;16.90;;;5.70;;
82744;SDS011;72484;50.004;14.356;2024-02-21T00:45:22;14.00;;;4.10;;
82744;SDS011;72484;50.004;14.356;2024-02-21T00:49:00;15.60;;;4.10;;
82744;SDS011;72484;50.004;14.356;2024-02-21T00:52:20;17.40;;;4.40;;
82744;SDS011;72484;50.004;14.356;2024-02-21T00:56:36;13.70;;;4.50;;
82744;SDS011;72484;50.004;14.356;2024-02-21T00:59:56;15.60;;;4.30;;
82744;SDS011;72484;50.004;14.356;2024-02-21T01:04:11;13.30;;;3.90;;
82744;SDS011;72484;50.004;14.356;2024-02-21T01:07:31;14.50;;;4.60;;
82744;SDS011;72484;50.004;14.356;2024-02-21T01:11:29;13.90;;;4.10;;
82744;SDS011;72484;50.004;14.356;2024-02-21T01:15:46;16.40;;;4.00;;
82744;SDS011;72484;50.004;14.356;2024-02-21T01:19:23;15.00;;;4.60;;
82744;SDS011;72484;50.004;14.356;2024-02-21T01:23:01;14.80;;;4.00;;
82744;SDS011;72484;50.004;14.356;2024-02-21T01:26:20;15.20;;;3.80;;
82744;SDS011;72484;50.004;14.356;2024-02-21T01:30:36;18.20;;;4.10;;
82744;SDS011;72484;50.004;14.356;2024-02-21T01:33:56;13.50;;;4.00;;
82744;SDS011;72484;50.004;14.356;2024-02-21T01:37:54;14.80;;;4.00;;
82744;SDS011;72484;50.004;14.356;2024-02-21T01:42:10;13.00;;;4.20;;
82744;SDS011;72484;50.004;14.356;2024-02-21T01:45:49;13.20;;;4.20;;
82744;SDS011;72484;50.004;14.356;2024-02-21T01:49:11;15.20;;;3.90;;
82744;SDS011;72484;50.004;14.356;2024-02-21T01:53:04;11.80;;;3.30;;
82744;SDS011;72484;50.004;14.356;2024-02-21T01:56:41;11.40;;;3.60;;
82744;SDS011;72484;50.004;14.356;2024-02-21T02:00:19;14.40;;;3.60;;
82744;SDS011;72484;50.004;14.356;2024-02-21T02:03:56;13.50;;;3.80;;
82744;SDS011;72484;50.004;14.356;2024-02-21T02:07:16;13.10;;;4.10;;
82744;SDS011;72484;50.004;14.356;2024-02-21T02:11:33;13.70;;;3.60;;
82744;SDS011;72484;50.004;14.356;2024-02-21T02:15:10;15.40;;;3.90;;
82744;SDS011;72484;50.004;14.356;2024-02-21T02:18:30;14.00;;;3.90;;
82744;SDS011;72484;50.004;14.356;2024-02-21T02:22:29;13.90;;;3.90;;
82744;SDS011;72484;50.004;14.356;2024-02-21T02:26:28;13.00;;;3.80;;
82744;SDS011;72484;50.004;14.356;2024-02-21T02:30:26;13.10;;;3.80;;
82744;SDS011;72484;50.004;14.356;2024-02-21T02:34:25;11.90;;;3.40;;
82744;SDS011;72484;50.004;14.356;2024-02-21T02:38:23;15.00;;;3.70;;
82744;SDS011;72484;50.004;14.356;2024-02-21T02:42:40;14.10;;;4.00;;
82744;SDS011;72484;50.004;14.356;2024-02-21T02:46:17;13.10;;;3.90;;
82744;SDS011;72484;50.004;14.356;2024-02-21T02:49:55;13.30;;;3.60;;
82744;SDS011;72484;50.004;14.356;2024-02-21T02:53:15;13.50;;;3.70;;
82744;SDS011;72484;50.004;14.356;2024-02-21T02:57:31;14.20;;;4.00;;
82744;SDS011;72484;50.004;14.356;2024-02-21T03:01:09;14.40;;;3.60;;
82744;SDS011;72484;50.004;14.356;2024-02-21T03:04:46;13.30;;;3.90;;
82744;SDS011;72484;50.004;14.356;2024-02-21T03:08:24;13.60;;;3.60;;
82744;SDS011;72484;50.004;14.356;2024-02-21T03:11:44;12.80;;;3.80;;
82744;SDS011;72484;50.004;14.356;2024-02-21T03:16:00;12.70;;;3.60;;
82744;SDS011;72484;50.004;14.356;2024-02-21T03:19:37;25.60;;;9.60;;
82744;SDS011;72484;50.004;14.356;2024-02-21T03:22:57;23.60;;;8.00;;
82744;SDS011;72484;50.004;14.356;2024-02-21T03:26:55;27.30;;;8.40;;
82744;SDS011;72484;50.004;14.356;2024-02-21T03:31:11;41.50;;;12.10;;
82744;SDS011;72484;50.004;14.356;2024-02-21T03:34:49;66.10;;;20.00;;
82744;SDS011;72484;50.004;14.356;2024-02-21T03:38:27;57.70;;;17.20;;
82744;SDS011;72484;50.004;14.356;2024-02-21T03:41:47;40.40;;;15.60;;
82744;SDS011;72484;50.004;14.356;2024-02-21T03:45:45;18.90;;;5.40;;
82744;SDS011;72484;50.004;14.356;2024-02-21T03:49:43;12.60;;;3.60;;
82744;SDS011;72484;50.004;14.356;2024-02-21T03:53:41;12.40;;;3.90;;
82744;SDS011;72484;50.004;14.356;2024-02-21T03:57:57;13.60;;;3.70;;
82744;SDS011;72484;50.004;14.356;2024-02-21T04:01:17;12.30;;;3.60;;
82744;SDS011;72484;50.004;14.356;2024-02-21T04:05:16;12.60;;;3.50;;
82744;SDS011;72484;50.004;14.356;2024-02-21T04:09:33;13.30;;;3.80;;
82744;SDS011;72484;50.004;14.356;2024-02-21T04:12:53;15.30;;;3.80;;
82744;SDS011;72484;50.004;14.356;2024-02-21T04:16:51;12.50;;;3.80;;
82744;SDS011;72484;50.004;14.356;2024-02-21T04:21:07;11.80;;;3.50;;
82744;SDS011;72484;50.004;14.356;2024-02-21T04:24:27;13.70;;;3.40;;
82744;SDS011;72484;50.004;14.356;2024-02-21T04:28:45;13.10;;;3.90;;
82744;SDS011;72484;50.004;14.356;2024-02-21T04:32:21;12.80;;;3.70;;
82744;SDS011;72484;50.004;14.356;2024-02-21T04:35:41;14.90;;;3.60;;
82744;SDS011;72484;50.004;14.356;2024-02-21T04:39:58;14.50;;;4.20;;
82744;SDS011;72484;50.004;14.356;2024-02-21T04:43:18;10.60;;;3.20;;
82744;SDS011;72484;50.004;14.356;2024-02-21T04:47:16;13.70;;;3.80;;
82744;SDS011;72484;50.004;14.356;2024-02-21T04:51:14;12.10;;;3.60;;
82744;SDS011;72484;50.004;14.356;2024-02-21T04:55:13;12.20;;;3.60;;
82744;SDS011;72484;50.004;14.356;2024-02-21T04:59:11;17.00;;;4.60;;
82744;SDS011;72484;50.004;14.356;2024-02-21T05:03:26;14.90;;;4.00;;
82744;SDS011;72484;50.004;14.356;2024-02-21T05:06:46;13.10;;;3.90;;
82744;SDS011;72484;50.004;14.356;2024-02-21T05:10:44;13.60;;;3.50;;
82744;SDS011;72484;50.004;14.356;2024-02-21T05:15:00;14.60;;;4.30;;
82744;SDS011;72484;50.004;14.356;2024-02-21T05:18:20;12.60;;;3.90;;
82744;SDS011;72484;50.004;14.356;2024-02-21T05:22:36;12.50;;;3.80;;
82744;SDS011;72484;50.004;14.356;2024-02-21T05:26:20;12.00;;;4.20;;
82744;SDS011;72484;50.004;14.356;2024-02-21T05:29:52;14.00;;;4.20;;
82744;SDS011;72484;50.004;14.356;2024-02-21T05:33:12;12.90;;;4.10;;
82744;SDS011;72484;50.004;14.356;2024-02-21T05:37:34;14.20;;;4.30;;
82744;SDS011;72484;50.004;14.356;2024-02-21T05:40:54;12.80;;;4.00;;
82744;SDS011;72484;50.004;14.356;2024-02-21T05:45:11;13.00;;;3.80;;
82744;SDS011;72484;50.004;14.356;2024-02-21T05:48:30;12.80;;;3.80;;
82744;SDS011;72484;50.004;14.356;2024-02-21T05:52:30;13.60;;;4.50;;
82744;SDS011;72484;50.004;14.356;2024-02-21T05:56:46;13.10;;;3.90;;
82744;SDS011;72484;50.004;14.356;2024-02-21T06:00:08;15.70;;;4.70;;
82744;SDS011;72484;50.004;14.356;2024-02-21T06:04:06;15.80;;;3.90;;
82744;SDS011;72484;50.004;14.356;2024-02-21T06:08:22;11.70;;;3.90;;
82744;SDS011;72484;50.004;14.356;2024-02-21T06:11:42;15.90;;;4.50;;
82744;SDS011;72484;50.004;14.356;2024-02-21T06:15:41;13.00;;;3.90;;
82744;SDS011;72484;50.004;14.356;2024-02-21T06:19:57;14.00;;;4.30;;
82744;SDS011;72484;50.004;14.356;2024-02-21T06:23:16;13.60;;;3.70;;
82744;SDS011;72484;50.004;14.356;2024-02-21T06:27:32;13.80;;;4.10;;
82744;SDS011;72484;50.004;14.356;2024-02-21T06:31:10;14.10;;;4.20;;
82744;SDS011;72484;50.004;14.356;2024-02-21T06:34:48;18.20;;;4.30;;
82744;SDS011;72484;50.004;14.356;2024-02-21T06:38:08;15.80;;;4.30;;
82744;SDS011;72484;50.004;14.356;2024-02-21T06:42:25;15.60;;;4.50;;
82744;SDS011;72484;50.004;14.356;2024-02-21T06:45:44;17.60;;;4.50;;
82744;SDS011;72484;50.004;14.356;2024-02-21T06:49:49;28.40;;;4.80;;
82744;SDS011;72484;50.004;14.356;2024-02-21T06:53:47;22.30;;;4.70;;
82744;SDS011;72484;50.004;14.356;2024-02-21T06:58:03;17.70;;;4.70;;
82744;SDS011;72484;50.004;14.356;2024-02-21T07:01:23;18.40;;;4.40;;
82744;SDS011;72484;50.004;14.356;2024-02-21T07:05:21;17.10;;;4.90;;
82744;SDS011;72484;50.004;14.356;2024-02-21T07:09:38;15.10;;;4.60;;
82744;SDS011;72484;50.004;14.356;2024-02-21T07:13:15;19.30;;;5.50;;
82744;SDS011;72484;50.004;14.356;2024-02-21T07:16:35;20.20;;;4.80;;
82744;SDS011;72484;50.004;14.356;2024-02-21T07:20:33;20.50;;;5.20;;
82744;SDS011;72484;50.004;14.356;2024-02-21T07:24:32;23.40;;;4.80;;
82744;SDS011;72484;50.004;14.356;2024-02-21T07:28:30;24.10;;;8.50;;
82744;SDS011;72484;50.004;14.356;2024-02-21T07:32:28;21.90;;;8.00;;
82744;SDS011;72484;50.004;14.356;2024-02-21T07:36:28;17.70;;;4.70;;
82744;SDS011;72484;50.004;14.356;2024-02-21T07:40:26;12.80;;;4.20;;
82744;SDS011;72484;50.004;14.356;2024-02-21T07:44:42;19.30;;;4.50;;
82744;SDS011;72484;50.004;14.356;2024-02-21T07:48:20;16.10;;;4.80;;
82744;SDS011;72484;50.004;14.356;2024-02-21T07:52:00;16.40;;;4.80;;
82744;SDS011;72484;50.004;14.356;2024-02-21T07:55:35;16.00;;;4.20;;
82744;SDS011;72484;50.004;14.356;2024-02-21T07:59:13;17.80;;;4.30;;
82744;SDS011;72484;50.004;14.356;2024-02-21T08:02:51;14.00;;;4.50;;
82744;SDS011;72484;50.004;14.356;2024-02-21T08:06:11;14.10;;;4.60;;
82744;SDS011;72484;50.004;14.356;2024-02-21T08:10:27;15.30;;;4.60;;
82744;SDS011;72484;50.004;14.356;2024-02-21T08:14:05;13.30;;;4.50;;
82744;SDS011;72484;50.004;14.356;2024-02-21T08:17:43;17.30;;;4.70;;
82744;SDS011;72484;50.004;14.356;2024-02-21T08:21:03;15.30;;;4.80;;
82744;SDS011;72484;50.004;14.356;2024-02-21T08:25:01;16.80;;;4.50;;
82744;SDS011;72484;50.004;14.356;2024-02-21T08:29:18;14.40;;;4.60;;
82744;SDS011;72484;50.004;14.356;2024-02-21T08:32:56;14.10;;;4.70;;
82744;SDS011;72484;50.004;14.356;2024-02-21T08:36:18;12.60;;;4.50;;
82744;SDS011;72484;50.004;14.356;2024-02-21T08:40:34;14.20;;;5.00;;
82744;SDS011;72484;50.004;14.356;2024-02-21T08:43:54;14.80;;;5.20;;
82744;SDS011;72484;50.004;14.356;2024-02-21T08:48:10;18.40;;;6.90;;
82744;SDS011;72484;50.004;14.356;2024-02-21T08:51:48;15.90;;;6.10;;
82744;SDS011;72484;50.004;14.356;2024-02-21T08:55:08;14.80;;;4.80;;
82744;SDS011;72484;50.004;14.356;2024-02-21T08:59:24;15.30;;;4.50;;
82744;SDS011;72484;50.004;14.356;2024-02-21T09:03:02;16.00;;;5.50;;
82744;SDS011;72484;50.004;14.356;2024-02-21T09:06:40;14.90;;;4.80;;
82744;SDS011;72484;50.004;14.356;2024-02-21T09:10:17;14.90;;;4.70;;
82744;SDS011;72484;50.004;14.356;2024-02-21T09:13:37;25.50;;;5.90;;
82744;SDS011;72484;50.004;14.356;2024-02-21T09:17:35;17.80;;;4.90;;
82744;SDS011;72484;50.004;14.356;2024-02-21T09:21:52;14.90;;;4.80;;
82744;SDS011;72484;50.004;14.356;2024-02-21T09:25:30;13.30;;;4.40;;
82744;SDS011;72484;50.004;14.356;2024-02-21T09:28:50;16.20;;;4.60;;
82744;SDS011;72484;50.004;14.356;2024-02-21T09:33:05;14.40;;;5.00;;
82744;SDS011;72484;50.004;14.356;2024-02-21T09:36:43;17.60;;;5.00;;
82744;SDS011;72484;50.004;14.356;2024-02-21T09:40:05;14.90;;;4.90;;
82744;SDS011;72484;50.004;14.356;2024-02-21T09:44:23;12.50;;;4.20;;
82744;SDS011;72484;50.004;14.356;2024-02-21T09:48:11;13.00;;;4.50;;
82744;SDS011;72484;50.004;14.356;2024-02-21T09:51:38;23.70;;;5.50;;
82744;SDS011;72484;50.004;14.356;2024-02-21T09:54:58;21.60;;;4.90;;
82744;SDS011;72484;50.004;14.356;2024-02-21T09:58:58;19.30;;;4.40;;
82744;SDS011;72484;50.004;14.356;2024-02-21T10:02:59;12.30;;;4.10;;
82744;SDS011;72484;50.004;14.356;2024-02-21T10:07:00;14.70;;;4.40;;
82744;SDS011;72484;50.004;14.356;2024-02-21T10:11:22;11.00;;;3.80;;
82744;SDS011;72484;50.004;14.356;2024-02-21T10:14:36;12.40;;;4.00;;
82744;SDS011;72484;50.004;14.356;2024-02-21T10:18:35;12.20;;;4.30;;
82744;SDS011;72484;50.004;14.356;2024-02-21T10:23:00;14.30;;;3.90;;
82744;SDS011;72484;50.004;14.356;2024-02-21T10:26:11;13.30;;;4.00;;
82744;SDS011;72484;50.004;14.356;2024-02-21T10:30:28;14.20;;;4.00;;
82744;SDS011;72484;50.004;14.356;2024-02-21T10:34:06;11.00;;;3.40;;
82744;SDS011;72484;50.004;14.356;2024-02-21T10:37:26;14.40;;;3.50;;
82744;SDS011;72484;50.004;14.356;2024-02-21T10:41:42;11.30;;;3.30;;
82744;SDS011;72484;50.004;14.356;2024-02-21T10:45:20;13.70;;;4.20;;
82744;SDS011;72484;50.004;14.356;2024-02-21T10:49:01;16.90;;;6.20;;
82744;SDS011;72484;50.004;14.356;2024-02-21T10:52:38;17.40;;;5.10;;
82744;SDS011;72484;50.004;14.356;2024-02-21T10:56:15;14.60;;;5.10;;
82744;SDS011;72484;50.004;14.356;2024-02-21T10:59:50;13.80;;;3.60;;
82744;SDS011;72484;50.004;14.356;2024-02-21T11:03:28;10.00;;;3.10;;
82744;SDS011;72484;50.004;14.356;2024-02-21T11:07:06;11.50;;;3.20;;
82744;SDS011;72484;50.004;14.356;2024-02-21T11:10:26;12.40;;;3.20;;
82744;SDS011;72484;50.004;14.356;2024-02-21T11:14:42;11.50;;;3.10;;
82744;SDS011;72484;50.004;14.356;2024-02-21T11:18:02;13.70;;;3.60;;
82744;SDS011;72484;50.004;14.356;2024-02-21T11:22:19;11.10;;;3.20;;
82744;SDS011;72484;50.004;14.356;2024-02-21T11:25:39;10.80;;;3.60;;
82744;SDS011;72484;50.004;14.356;2024-02-21T11:29:40;10.90;;;3.20;;
82744;SDS011;72484;50.004;14.356;2024-02-21T11:33:58;12.80;;;3.20;;
82744;SDS011;72484;50.004;14.356;2024-02-21T11:37:18;11.50;;;3.60;;
82744;SDS011;72484;50.004;14.356;2024-02-21T11:41:16;10.50;;;3.60;;
82744;SDS011;72484;50.004;14.356;2024-02-21T11:45:15;13.20;;;3.50;;
82744;SDS011;72484;50.004;14.356;2024-02-21T11:49:37;13.60;;;5.50;;
82744;SDS011;72484;50.004;14.356;2024-02-21T11:52:55;15.00;;;6.90;;
82744;SDS011;72484;50.004;14.356;2024-02-21T11:57:11;11.10;;;4.40;;
82744;SDS011;72484;50.004;14.356;2024-02-21T12:00:31;12.70;;;4.10;;
82744;SDS011;72484;50.004;14.356;2024-02-21T12:04:47;10.60;;;2.90;;
82744;SDS011;72484;50.004;14.356;2024-02-21T12:08:07;12.10;;;3.30;;
82744;SDS011;72484;50.004;14.356;2024-02-21T12:12:06;24.40;;;3.90;;
82744;SDS011;72484;50.004;14.356;2024-02-21T12:16:22;13.00;;;3.50;;
82744;SDS011;72484;50.004;14.356;2024-02-21T12:20:00;12.40;;;4.00;;
82744;SDS011;72484;50.004;14.356;2024-02-21T12:23:38;12.00;;;3.90;;
82744;SDS011;72484;50.004;14.356;2024-02-21T12:27:16;10.30;;;3.30;;
82744;SDS011;72484;50.004;14.356;2024-02-21T12:30:53;12.60;;;3.60;;
82744;SDS011;72484;50.004;14.356;2024-02-21T12:34:14;13.20;;;3.50;;
82744;SDS011;72484;50.004;14.356;2024-02-21T12:38:12;9.70;;;2.70;;
82744;SDS011;72484;50.004;14.356;2024-02-21T12:42:28;11.60;;;2.80;;
82744;SDS011;72484;50.004;14.356;2024-02-21T12:45:48;10.40;;;2.80;;
82744;SDS011;72484;50.004;14.356;2024-02-21T12:49:46;14.00;;;3.60;;
82744;SDS011;72484;50.004;14.356;2024-02-21T12:54:02;10.60;;;3.80;;
82744;SDS011;72484;50.004;14.356;2024-02-21T12:57:22;9.30;;;2.90;;
82744;SDS011;72484;50.004;14.356;2024-02-21T13:01:20;9.90;;;2.20;;
82744;SDS011;72484;50.004;14.356;2024-02-21T13:05:18;7.80;;;2.10;;
82744;SDS011;72484;50.004;14.356;2024-02-21T13:09:34;13.80;;;2.50;;
82744;SDS011;72484;50.004;14.356;2024-02-21T13:13:12;10.30;;;2.10;;
82744;SDS011;72484;50.004;14.356;2024-02-21T13:16:50;11.40;;;2.50;;
82744;SDS011;72484;50.004;14.356;2024-02-21T13:20:11;15.10;;;2.70;;
82744;SDS011;72484;50.004;14.356;2024-02-21T13:24:09;10.00;;;2.10;;
82744;SDS011;72484;50.004;14.356;2024-02-21T13:28:07;10.30;;;2.60;;
82744;SDS011;72484;50.004;14.356;2024-02-21T13:32:23;10.80;;;2.30;;
82744;SDS011;72484;50.004;14.356;2024-02-21T13:36:01;11.60;;;2.20;;
82744;SDS011;72484;50.004;14.356;2024-02-21T13:39:21;11.10;;;3.10;;
82744;SDS011;72484;50.004;14.356;2024-02-21T13:43:37;10.60;;;3.40;;
82744;SDS011;72484;50.004;14.356;2024-02-21T13:47:15;10.50;;;2.20;;
82744;SDS011;72484;50.004;14.356;2024-02-21T13:50:34;10.70;;;2.30;;
82744;SDS011;72484;50.004;14.356;2024-02-21T13:54:55;8.60;;;2.30;;
82744;SDS011;72484;50.004;14.356;2024-02-21T13:58:15;11.40;;;2.70;;
82744;SDS011;72484;50.004;14.356;2024-02-21T14:02:14;18.50;;;6.70;;
82744;SDS011;72484;50.004;14.356;2024-02-21T14:06:12;14.40;;;4.30;;
82744;SDS011;72484;50.004;14.356;2024-02-21T14:10:28;10.40;;;2.50;;
82744;SDS011;72484;50.004;14.356;2024-02-21T14:14:08;10.50;;;2.60;;
82744;SDS011;72484;50.004;14.356;2024-02-21T14:17:25;9.60;;;2.20;;
82744;SDS011;72484;50.004;14.356;2024-02-21T14:21:41;11.20;;;2.50;;
82744;SDS011;72484;50.004;14.356;2024-02-21T14:25:01;10.10;;;2.50;;
82744;SDS011;72484;50.004;14.356;2024-02-21T14:29:18;14.30;;;2.50;;
82744;SDS011;72484;50.004;14.356;2024-02-21T14:32:39;14.10;;;2.50;;
82744;SDS011;72484;50.004;14.356;2024-02-21T14:36:58;8.60;;;2.50;;
82744;SDS011;72484;50.004;14.356;2024-02-21T14:40:36;9.10;;;2.20;;
82744;SDS011;72484;50.004;14.356;2024-02-21T14:44:13;11.60;;;2.40;;
82744;SDS011;72484;50.004;14.356;2024-02-21T14:47:51;11.40;;;2.30;;
82744;SDS011;72484;50.004;14.356;2024-02-21T14:51:29;10.30;;;2.20;;
82744;SDS011;72484;50.004;14.356;2024-02-21T14:55:07;8.60;;;1.90;;
82744;SDS011;72484;50.004;14.356;2024-02-21T14:58:26;10.10;;;1.90;;
82744;SDS011;72484;50.004;14.356;2024-02-21T15:02:44;11.10;;;2.50;;
82744;SDS011;72484;50.004;14.356;2024-02-21T15:06:22;10.70;;;2.10;;
82744;SDS011;72484;50.004;14.356;2024-02-21T15:10:00;9.90;;;2.10;;
82744;SDS011;72484;50.004;14.356;2024-02-21T15:13:38;9.00;;;1.90;;
82744;SDS011;72484;50.004;14.356;2024-02-21T15:17:15;8.80;;;1.90;;
82744;SDS011;72484;50.004;14.356;2024-02-21T15:20:52;9.90;;;2.00;;
82744;SDS011;72484;50.004;14.356;2024-02-21T15:24:12;7.90;;;1.80;;
82744;SDS011;72484;50.004;14.356;2024-02-21T15:28:11;9.90;;;2.10;;
82744;SDS011;72484;50.004;14.356;2024-02-21T15:32:09;11.90;;;2.20;;
82744;SDS011;72484;50.004;14.356;2024-02-21T15:36:25;9.90;;;2.80;;
82744;SDS011;72484;50.004;14.356;2024-02-21T15:40:04;10.80;;;2.30;;
82744;SDS011;72484;50.004;14.356;2024-02-21T15:43:23;10.00;;;1.70;;
82744;SDS011;72484;50.004;14.356;2024-02-21T15:47:40;9.10;;;2.10;;
82744;SDS011;72484;50.004;14.356;2024-02-21T15:51:00;10.00;;;3.10;;
82744;SDS011;72484;50.004;14.356;2024-02-21T15:55:17;9.10;;;2.40;;
82744;SDS011;72484;50.004;14.356;2024-02-21T15:58:54;9.50;;;2.50;;
82744;SDS011;72484;50.004;14.356;2024-02-21T16:02:32;10.40;;;4.00;;
82744;SDS011;72484;50.004;14.356;2024-02-21T16:05:52;12.00;;;4.80;;
82744;SDS011;72484;50.004;14.356;2024-02-21T16:09:50;11.40;;;2.90;;
82744;SDS011;72484;50.004;14.356;2024-02-21T16:14:06;11.60;;;4.70;;
82744;SDS011;72484;50.004;14.356;2024-02-21T16:17:26;12.90;;;4.80;;
82744;SDS011;72484;50.004;14.356;2024-02-21T16:21:42;14.50;;;5.50;;
82744;SDS011;72484;50.004;14.356;2024-02-21T16:25:01;14.70;;;5.20;;
82744;SDS011;72484;50.004;14.356;2024-02-21T16:29:00;9.90;;;2.80;;
82744;SDS011;72484;50.004;14.356;2024-02-21T16:33:17;14.10;;;4.40;;
82744;SDS011;72484;50.004;14.356;2024-02-21T16:36:55;10.30;;;2.80;;
82744;SDS011;72484;50.004;14.356;2024-02-21T16:40:15;10.80;;;4.20;;
82744;SDS011;72484;50.004;14.356;2024-02-21T16:44:14;10.00;;;2.90;;
82744;SDS011;72484;50.004;14.356;2024-02-21T16:48:12;10.40;;;3.20;;
82744;SDS011;72484;50.004;14.356;2024-02-21T16:52:28;12.10;;;4.00;;
82744;SDS011;72484;50.004;14.356;2024-02-21T16:56:06;11.70;;;3.90;;
82744;SDS011;72484;50.004;14.356;2024-02-21T16:59:25;9.80;;;2.80;;
82744;SDS011;72484;50.004;14.356;2024-02-21T17:03:23;13.30;;;3.60;;
82744;SDS011;72484;50.004;14.356;2024-02-21T17:07:23;12.80;;;3.20;;
82744;SDS011;72484;50.004;14.356;2024-02-21T17:11:39;10.80;;;2.80;;
82744;SDS011;72484;50.004;14.356;2024-02-21T17:14:59;10.30;;;2.70;;
82744;SDS011;72484;50.004;14.356;2024-02-21T17:18:57;10.20;;;2.40;;
82744;SDS011;72484;50.004;14.356;2024-02-21T17:23:13;27.90;;;10.40;;
82744;SDS011;72484;50.004;14.356;2024-02-21T17:26:51;11.90;;;3.60;;
82744;SDS011;72484;50.004;14.356;2024-02-21T17:30:11;10.60;;;2.50;;
82744;SDS011;72484;50.004;14.356;2024-02-21T17:34:11;9.50;;;2.70;;
82744;SDS011;72484;50.004;14.356;2024-02-21T17:38:09;9.00;;;2.70;;
82744;SDS011;72484;50.004;14.356;2024-02-21T17:42:07;10.10;;;2.60;;
82744;SDS011;72484;50.004;14.356;2024-02-21T17:46:05;9.40;;;2.60;;
82744;SDS011;72484;50.004;14.356;2024-02-21T17:50:21;11.30;;;3.10;;
82744;SDS011;72484;50.004;14.356;2024-02-21T17:53:41;10.10;;;3.20;;
82744;SDS011;72484;50.004;14.356;2024-02-21T17:57:39;11.60;;;3.50;;
82744;SDS011;72484;50.004;14.356;2024-02-21T18:01:55;11.30;;;2.50;;
82744;SDS011;72484;50.004;14.356;2024-02-21T18:05:33;10.20;;;2.70;;
82744;SDS011;72484;50.004;14.356;2024-02-21T18:09:11;17.70;;;8.90;;
82744;SDS011;72484;50.004;14.356;2024-02-21T18:12:48;9.30;;;3.40;;
82744;SDS011;72484;50.004;14.356;2024-02-21T18:16:26;9.60;;;5.00;;
82744;SDS011;72484;50.004;14.356;2024-02-21T18:20:05;9.30;;;3.40;;
82744;SDS011;72484;50.004;14.356;2024-02-21T18:23:42;9.90;;;3.00;;
82744;SDS011;72484;50.004;14.356;2024-02-21T18:27:19;10.50;;;3.40;;
82744;SDS011;72484;50.004;14.356;2024-02-21T18:30:39;16.90;;;7.90;;
82744;SDS011;72484;50.004;14.356;2024-02-21T18:34:55;12.50;;;5.60;;
82744;SDS011;72484;50.004;14.356;2024-02-21T18:38:15;12.90;;;4.60;;
82744;SDS011;72484;50.004;14.356;2024-02-21T18:42:14;9.70;;;3.40;;
82744;SDS011;72484;50.004;14.356;2024-02-21T18:46:12;10.20;;;4.10;;
82744;SDS011;72484;50.004;14.356;2024-02-21T18:50:10;11.60;;;4.60;;
82744;SDS011;72484;50.004;14.356;2024-02-21T18:54:26;13.30;;;3.80;;
82744;SDS011;72484;50.004;14.356;2024-02-21T18:58:04;11.00;;;3.40;;
82744;SDS011;72484;50.004;14.356;2024-02-21T19:01:24;10.60;;;3.80;;
82744;SDS011;72484;50.004;14.356;2024-02-21T19:05:40;14.90;;;6.40;;
82744;SDS011;72484;50.004;14.356;2024-02-21T19:09:18;13.60;;;7.40;;
82744;SDS011;72484;50.004;14.356;2024-02-21T19:12:37;21.30;;;12.90;;
82744;SDS011;72484;50.004;14.356;2024-02-21T19:16:54;21.90;;;13.10;;
82744;SDS011;72484;50.004;14.356;2024-02-21T19:20:13;13.10;;;6.50;;
82744;SDS011;72484;50.004;14.356;2024-02-21T19:24:29;12.00;;;5.50;;
82744;SDS011;72484;50.004;14.356;2024-02-21T19:28:07;11.20;;;5.90;;
82744;SDS011;72484;50.004;14.356;2024-02-21T19:31:45;8.40;;;3.10;;
82744;SDS011;72484;50.004;14.356;2024-02-21T19:35:22;9.10;;;2.60;;
82744;SDS011;72484;50.004;14.356;2024-02-21T19:39:00;14.70;;;6.80;;
82744;SDS011;72484;50.004;14.356;2024-02-21T19:42:20;16.70;;;8.60;;
82744;SDS011;72484;50.004;14.356;2024-02-21T19:46:18;17.70;;;8.00;;
82744;SDS011;72484;50.004;14.356;2024-02-21T19:50:33;13.20;;;6.40;;
82744;SDS011;72484;50.004;14.356;2024-02-21T19:53:53;13.70;;;6.10;;
82744;SDS011;72484;50.004;14.356;2024-02-21T19:57:52;12.10;;;5.30;;
82744;SDS011;72484;50.004;14.356;2024-02-21T20:01:50;11.10;;;5.20;;
82744;SDS011;72484;50.004;14.356;2024-02-21T20:06:09;12.30;;;4.70;;
82744;SDS011;72484;50.004;14.356;2024-02-21T20:09:44;11.90;;;4.80;;
82744;SDS011;72484;50.004;14.356;2024-02-21T20:13:04;11.20;;;5.50;;
82744;SDS011;72484;50.004;14.356;2024-02-21T20:17:02;11.50;;;5.20;;
82744;SDS011;72484;50.004;14.356;2024-02-21T20:21:18;11.60;;;5.40;;
82744;SDS011;72484;50.004;14.356;2024-02-21T20:24:56;12.70;;;5.00;;
82744;SDS011;72484;50.004;14.356;2024-02-21T20:28:16;10.60;;;4.50;;
82744;SDS011;72484;50.004;14.356;2024-02-21T20:32:14;10.60;;;4.10;;
82744;SDS011;72484;50.004;14.356;2024-02-21T20:36:12;11.80;;;4.80;;
82744;SDS011;72484;50.004;14.356;2024-02-21T20:40:10;12.60;;;6.00;;
82744;SDS011;72484;50.004;14.356;2024-02-21T20:44:27;12.20;;;4.60;;
82744;SDS011;72484;50.004;14.356;2024-02-21T20:47:47;11.70;;;4.90;;
82744;SDS011;72484;50.004;14.356;2024-02-21T20:52:03;11.40;;;4.90;;
82744;SDS011;72484;50.004;14.356;2024-02-21T20:55:40;11.90;;;4.60;;
82744;SDS011;72484;50.004;14.356;2024-02-21T20:59:18;12.80;;;5.90;;
82744;SDS011;72484;50.004;14.356;2024-02-21T21:02:56;11.20;;;5.10;;
82744;SDS011;72484;50.004;14.356;2024-02-21T21:06:34;11.40;;;5.50;;
82744;SDS011;72484;50.004;14.356;2024-02-21T21:10:11;14.10;;;7.10;;
82744;SDS011;72484;50.004;14.356;2024-02-21T21:13:49;13.30;;;5.50;;
82744;SDS011;72484;50.004;14.356;2024-02-21T21:17:09;13.60;;;5.90;;
82744;SDS011;72484;50.004;14.356;2024-02-21T21:21:07;12.30;;;5.90;;
82744;SDS011;72484;50.004;14.356;2024-02-21T21:25:24;11.30;;;5.10;;
82744;SDS011;72484;50.004;14.356;2024-02-21T21:28:43;10.10;;;4.40;;
82744;SDS011;72484;50.004;14.356;2024-02-21T21:32:42;11.00;;;4.30;;
82744;SDS011;72484;50.004;14.356;2024-02-21T21:36:58;12.70;;;4.70;;
82744;SDS011;72484;50.004;14.356;2024-02-21T21:40:17;10.70;;;4.40;;
82744;SDS011;72484;50.004;14.356;2024-02-21T21:44:16;10.10;;;4.30;;
82744;SDS011;72484;50.004;14.356;2024-02-21T21:48:32;10.50;;;4.30;;
82744;SDS011;72484;50.004;14.356;2024-02-21T21:52:09;11.60;;;4.80;;
82744;SDS011;72484;50.004;14.356;2024-02-21T21:55:47;11.30;;;4.90;;
82744;SDS011;72484;50.004;14.356;2024-02-21T21:59:07;11.20;;;4.40;;
82744;SDS011;72484;50.004;14.356;2024-02-21T22:03:24;10.90;;;4.90;;
82744;SDS011;72484;50.004;14.356;2024-02-21T22:06:44;11.00;;;4.70;;
82744;SDS011;72484;50.004;14.356;2024-02-21T22:10:42;10.60;;;4.80;;